Map

Track Data

SID SEASON NUMBER BASIN SUBBASIN NAME ISO_TIME NATURE LAT LON WMO_WIND WMO_PRES WMO_AGENCY TRACK_TYPE DIST2LAND LANDFALL IFLAG USA_AGENCY USA_ATCF_ID USA_LAT USA_LON USA_RECORD USA_STATUS USA_WIND USA_PRES USA_SSHS USA_R34_NE USA_R34_SE USA_R34_SW USA_R34_NW USA_R50_NE USA_R50_SE USA_R50_SW USA_R50_NW USA_R64_NE USA_R64_SE USA_R64_SW USA_R64_NW USA_POCI USA_ROCI USA_RMW USA_EYE TOKYO_LAT TOKYO_LON TOKYO_GRADE TOKYO_WIND TOKYO_PRES TOKYO_R50_DIR TOKYO_R50_LONG TOKYO_R50_SHORT TOKYO_R30_DIR TOKYO_R30_LONG TOKYO_R30_SHORT TOKYO_LAND CMA_LAT CMA_LON CMA_CAT CMA_WIND CMA_PRES HKO_LAT HKO_LON HKO_CAT HKO_WIND HKO_PRES NEWDELHI_LAT NEWDELHI_LON NEWDELHI_GRADE NEWDELHI_WIND NEWDELHI_PRES NEWDELHI_CI NEWDELHI_DP NEWDELHI_POCI REUNION_LAT REUNION_LON REUNION_TYPE REUNION_WIND REUNION_PRES REUNION_TNUM REUNION_CI REUNION_RMW REUNION_R34_NE REUNION_R34_SE REUNION_R34_SW REUNION_R34_NW REUNION_R50_NE REUNION_R50_SE REUNION_R50_SW REUNION_R50_NW REUNION_R64_NE REUNION_R64_SE REUNION_R64_SW REUNION_R64_NW BOM_LAT BOM_LON BOM_TYPE BOM_WIND BOM_PRES BOM_TNUM BOM_CI BOM_RMW BOM_R34_NE BOM_R34_SE BOM_R34_SW BOM_R34_NW BOM_R50_NE BOM_R50_SE BOM_R50_SW BOM_R50_NW BOM_R64_NE BOM_R64_SE BOM_R64_SW BOM_R64_NW BOM_ROCI BOM_POCI BOM_EYE BOM_POS_METHOD BOM_PRES_METHOD NADI_LAT NADI_LON NADI_CAT NADI_WIND NADI_PRES WELLINGTON_LAT WELLINGTON_LON WELLINGTON_WIND WELLINGTON_PRES DS824_LAT DS824_LON DS824_STAGE DS824_WIND DS824_PRES TD9636_LAT TD9636_LON TD9636_STAGE TD9636_WIND TD9636_PRES TD9635_LAT TD9635_LON TD9635_WIND TD9635_PRES TD9635_ROCI NEUMANN_LAT NEUMANN_LON NEUMANN_CLASS NEUMANN_WIND NEUMANN_PRES MLC_LAT MLC_LON MLC_CLASS MLC_WIND MLC_PRES USA_GUST BOM_GUST BOM_GUST_PER REUNION_GUST REUNION_GUST_PER USA_SEAHGT USA_SEARAD_NE USA_SEARAD_SE USA_SEARAD_SW USA_SEARAD_NW STORM_SPEED STORM_DIR
1917211N23090 1917 30 NI BB NOT_NAMED 1917-07-30 00:00:00 TS 22.9000 90.1000 main 0 0 _________O____ -1 22.9000 90.1000 TC 30 4 303
1917211N23090 1917 30 NI BB NOT_NAMED 1917-07-30 03:00:00 TS 23.0001 89.9301 main 0 0 _________PO___ -1 23.0501 89.8451 TC 30 22.9000 90.1000 1 4 304
1917211N23090 1917 30 NI BB NOT_NAMED 1917-07-30 06:00:00 TS 23.1394 89.7094 main 0 0 _________OP___ -1 23.2000 89.6000 TC 30 23.0484 89.8736 1 5 305
1917211N23090 1917 30 NI BB NOT_NAMED 1917-07-30 09:00:00 TS 23.2845 89.4817 main 0 0 _________PP___ -1 23.3499 89.3649 TC 30 23.1974 89.6375 1 5 303
1917211N23090 1917 30 NI BB NOT_NAMED 1917-07-30 12:00:00 TS 23.4238 89.2414 main 0 0 _________OP___ -1 23.5000 89.1000 TC 30 23.3477 89.3827 1 6 300
1917211N23090 1917 30 NI BB NOT_NAMED 1917-07-30 15:00:00 TS 23.5788 88.9213 main 0 0 _________PO___ -1 23.6576 88.7426 TC 30 23.5000 89.1000 1 7 297
1917211N23090 1917 30 NI BB NOT_NAMED 1917-07-30 18:00:00 TS 23.7264 88.5939 main 0 0 _________OP___ -1 23.8000 88.4000 TC 30 23.6528 88.7877 1 6 297
1917211N23090 1917 30 NI BB NOT_NAMED 1917-07-30 21:00:00 TS 23.8589 88.3114 main 0 0 _________PP___ -1 23.9224 88.1475 TC 30 23.7954 88.4754 1 5 297
1917211N23090 1917 30 NI BB NOT_NAMED 1917-07-31 00:00:00 TS 23.9577 88.1001 main 0 0 _________OP___ -1 24.0000 88.0000 TC 30 23.9153 88.2003 1 3 296
1917211N23090 1917 30 NI BB NOT_NAMED 1917-07-31 03:00:00 TS 24.0075 87.9850 main 0 0 _________PO___ -1 24.0150 87.9699 TC 30 24.0000 88.0000 1 1 296
1917211N23090 1917 30 NI BB NOT_NAMED 1917-07-31 06:00:00 TS 24.0178 87.9603 main 0 0 _________OP___ -1 24.0000 88.0000 TC 30 24.0356 87.9206 1 0 0
1917211N23090 1917 30 NI BB NOT_NAMED 1917-07-31 09:00:00 TS 24.0186 87.9586 main 0 0 _________PP___ -1 24.0000 88.0000 TC 30 24.0372 87.9172 1 0 0
1917211N23090 1917 30 NI BB NOT_NAMED 1917-07-31 12:00:00 TS 24.0101 87.9776 main 0 0 _________OP___ -1 24.0000 88.0000 TC 30 24.0201 87.9551 1 0 118
1917211N23090 1917 30 NI BB NOT_NAMED 1917-07-31 15:00:00 TS 24.0000 88.0000 main 0 0 _________PO___ -1 24.0000 88.0000 TC 30 24.0000 88.0000 1 0 124
1917211N23090 1917 30 NI BB NOT_NAMED 1917-07-31 18:00:00 TS 23.9877 88.0263 main 0 0 _________OP___ -1 24.0000 88.0000 TC 30 23.9754 88.0526 1 1 116
1917211N23090 1917 30 NI BB NOT_NAMED 1917-07-31 21:00:00 TS 23.9697 88.0672 main 0 0 _________PP___ -1 23.9849 88.0374 TC 30 23.9546 88.0970 1 0 0
1917211N23090 1917 30 NI BB NOT_NAMED 1917-08-01 00:00:00 TS 23.9782 88.0465 main 0 0 _________OP___ -1 24.0000 88.0000 TC 30 23.9565 88.0930 1 2 294
1917211N23090 1917 30 NI BB NOT_NAMED 1917-08-01 03:00:00 TS 24.0350 87.9049 main 0 0 _________PO___ -1 24.0699 87.8099 TC 30 24.0000 88.0000 1 4 296
1917211N23090 1917 30 NI BB NOT_NAMED 1917-08-01 06:00:00 TS 24.1597 87.6325 main 0 0 _________OP___ -1 24.2000 87.5000 TC 30 24.1195 87.7650 1 7 298
1917211N23090 1917 30 NI BB NOT_NAMED 1917-08-01 09:00:00 TS 24.3391 87.2744 main 0 0 _________PP___ -1 24.4002 87.1078 TC 30 24.2781 87.4409 1 8 298
1917211N23090 1917 30 NI BB NOT_NAMED 1917-08-01 12:00:00 TS 24.5238 86.8856 main 0 0 _________OP___ -1 24.6000 86.7000 TC 30 24.4476 87.0713 1 7 296
1917211N23090 1917 30 NI BB NOT_NAMED 1917-08-01 15:00:00 TS 24.6612 86.5424 main 0 0 _________PO___ -1 24.7223 86.3848 TC 30 24.6000 86.7000 1 6 292
1917211N23090 1917 30 NI BB NOT_NAMED 1917-08-01 18:00:00 TS 24.7479 86.2624 main 0 0 _________OP___ -1 24.8000 86.1000 TC 30 24.6958 86.4248 1 5 287
1917211N23090 1917 30 NI BB NOT_NAMED 1917-08-01 21:00:00 TS 24.8105 85.9908 main 0 0 _________PP___ -1 24.8497 85.8298 TC 30 24.7713 86.1517 1 5 283
1917211N23090 1917 30 NI BB NOT_NAMED 1917-08-02 00:00:00 TS 24.8681 85.6765 main 0 0 _________OP___ -1 24.9000 85.5000 TC 30 24.8362 85.8529 1 7 282
1917211N23090 1917 30 NI BB NOT_NAMED 1917-08-02 03:00:00 TS 24.9500 85.2651 main 0 0 _________PO___ -1 25.0001 85.0301 TC 30 24.9000 85.5000 1 8 282
1917211N23090 1917 30 NI BB NOT_NAMED 1917-08-02 06:00:00 TS 25.0399 84.7687 main 0 0 _________OP___ -1 25.1000 84.5000 TC 30 24.9798 85.0374 1 9 280
1917211N23090 1917 30 NI BB NOT_NAMED 1917-08-02 09:00:00 TS 25.1080 84.2501 main 0 0 _________PP___ -1 25.1575 83.9774 TC 30 25.0586 84.5228 1 9 278
1917211N23090 1917 30 NI BB NOT_NAMED 1917-08-02 12:00:00 TS 25.1665 83.7484 main 0 0 _________OP___ -1 25.2000 83.5000 TC 30 25.1329 83.9967 1 9 278
1917211N23090 1917 30 NI BB NOT_NAMED 1917-08-02 15:00:00 TS 25.2248 83.3175 main 0 0 _________PO___ -1 25.2497 83.1349 TC 30 25.2000 83.5000 1 7 279
1917211N23090 1917 30 NI BB NOT_NAMED 1917-08-02 18:00:00 TS 25.2762 82.9507 main 0 0 _________OP___ -1 25.3000 82.8000 TC 30 25.2583 83.0637 1 7 279
1917211N23090 1917 30 NI BB NOT_NAMED 1917-08-02 21:00:00 TS 25.3259 82.5750 main 0 0 _________PP___ -1 25.3504 82.4176 TC 30 25.3096 82.6800 1 7 278
1917211N23090 1917 30 NI BB NOT_NAMED 1917-08-03 00:00:00 TS 25.3708 82.2209 main 0 0 _________OP___ -1 25.4000 82.0000 TC 30 25.3561 82.3313 1 5 278
1917211N23090 1917 30 NI BB NOT_NAMED 1917-08-03 03:00:00 NR 25.4000 82.0000 main 0 __________O___ -1 TC 25.4000 82.0000 1 4 278

About IBTrACS Database

This database is a web-friendly format of International Best Track Archive for Climate Stewardship (IBTrACS), a global best track data archive curated by NOAA dating back to 1842.

Updated: 2021-12-03